Brownstown, Washington
Current Conditions -  °F | °C
As of 7:53 PM on Tuesday 21 Oct 2014 (Local Time) from KYKM Reporting Station
Scattered Clouds Scattered Clouds  
Wind Chill: 54°   Ceiling: Unl
Heat Index: 54°   Visibility: 10mi
Dew Point: 42°   Wind: 3mph
Humidity: 64%   Direction: 70°ENE
Pressure: 29.93"   Gusts: NA
Location:  46.4°N, 120.61°W
Report Text: KYKM 220253Z 07003KT 10SM SCT070 12/06 A2993 RMK AO2 SLP138 T01220056 53004
Loading
Personal Weather Stations






























Interactive Weather Map
Tropical Storm Tracking
New forecast layout! Learn more

10-Day Weather Forecast

Advertisements
Track Severe Weather on mobile